Time;durP1;ratioP1;P1;durP2;ratioP2;P2;SDS_P1;SDS_P2;PMS_P1;PMS_P2;Temp;Humidity;BMP_temperature;BMP_pressure;BME280_temperature;BME280_humidity;BME280_pressure;Samples;Min_cycle;Max_cycle;Signal;HPM_P1;HPM_P2
2023/08/21 00:00:22;;;;;;;15.48;5.88;;;;;;;;;;5019689;28;20041;-67
2023/08/21 00:02:47;;;;;;;15.30;5.88;;;;;;;;;;5018748;28;20056;-67
2023/08/21 00:05:15;;;;;;;15.65;5.97;;;;;;;;;;5007817;28;20562;-67
2023/08/21 00:07:40;;;;;;;18.88;6.00;;;;;;;;;;5019065;28;20110;-66
2023/08/21 00:10:08;;;;;;;18.50;5.95;;;;;;;;;;5020853;28;20041;-67
2023/08/21 00:12:34;;;;;;;21.85;7.13;;;;;;;;;;5019053;28;20151;-67
2023/08/21 00:14:59;;;;;;;20.52;6.50;;;;;;;;;;5008250;28;20152;-67
2023/08/21 00:17:24;;;;;;;17.70;5.75;;;;;;;;;;5017863;28;20037;-67
2023/08/21 00:19:52;;;;;;;14.38;5.20;;;;;;;;;;5021822;28;20083;-67
2023/08/21 00:22:17;;;;;;;14.57;5.25;;;;;;;;;;5019272;28;20044;-66
2023/08/21 00:24:43;;;;;;;16.70;5.88;;;;;;;;;;5017555;27;20896;-67
2023/08/21 00:27:10;;;;;;;15.82;5.30;;;;;;;;;;5019629;28;20033;-66
2023/08/21 00:29:36;;;;;;;15.77;4.75;;;;;;;;;;5019728;28;20033;-66
2023/08/21 00:32:01;;;;;;;12.50;3.95;;;;;;;;;;5017887;28;20059;-66
2023/08/21 00:34:26;;;;;;;11.52;3.92;;;;;;;;;;5019534;28;20200;-66
2023/08/21 00:36:51;;;;;;;14.20;4.03;;;;;;;;;;5023487;28;20033;-66
2023/08/21 00:39:17;;;;;;;15.73;7.07;;;;;;;;;;5019807;28;20041;-66
2023/08/21 00:41:42;;;;;;;14.82;5.78;;;;;;;;;;5018547;28;20068;-66
2023/08/21 00:44:07;;;;;;;16.23;6.15;;;;;;;;;;5023712;28;20561;-66
2023/08/21 00:46:34;;;;;;;17.52;6.68;;;;;;;;;;5018313;28;20049;-66
2023/08/21 00:48:59;;;;;;;16.30;6.50;;;;;;;;;;5034355;28;20048;-66
2023/08/21 00:51:24;;;;;;;16.70;6.43;;;;;;;;;;5015483;28;20068;-66
2023/08/21 00:53:50;;;;;;;18.30;5.60;;;;;;;;;;5018581;28;20047;-66
2023/08/21 00:56:18;;;;;;;16.33;5.82;;;;;;;;;;5019653;28;20072;-66
2023/08/21 00:58:44;;;;;;;19.85;7.05;;;;;;;;;;5018815;28;20044;-66
2023/08/21 01:01:09;;;;;;;15.18;5.50;;;;;;;;;;5013162;28;20124;-66
2023/08/21 01:03:35;;;;;;;19.50;6.10;;;;;;;;;;5018287;28;20064;-66
2023/08/21 01:06:00;;;;;;;15.43;5.78;;;;;;;;;;5019884;28;20941;-66
2023/08/21 01:08:32;;;;;;;15.38;6.18;;;;;;;;;;5022102;28;20033;-66
2023/08/21 01:11:32;;;;;;;16.88;5.75;;;;;;;;;;5016818;28;20124;-66
2023/08/21 01:14:08;;;;;;;17.70;6.38;;;;;;;;;;4969920;28;20992;-66
2023/08/21 01:16:37;;;;;;;18.15;6.53;;;;;;;;;;5011966;28;20187;-66
2023/08/21 01:19:03;;;;;;;15.80;6.25;;;;;;;;;;5021891;28;20125;-66
2023/08/21 01:21:29;;;;;;;19.80;6.97;;;;;;;;;;5019156;28;20041;-66
2023/08/21 01:23:54;;;;;;;21.42;7.35;;;;;;;;;;5004412;28;20060;-66
2023/08/21 01:26:19;;;;;;;17.45;7.28;;;;;;;;;;5018947;28;20037;-66
2023/08/21 01:28:47;;;;;;;18.13;8.95;;;;;;;;;;5018155;28;20503;-66
2023/08/21 01:31:22;;;;;;;21.48;9.90;;;;;;;;;;5018456;28;20037;-66
2023/08/21 01:33:50;;;;;;;21.92;9.52;;;;;;;;;;5023133;28;20033;-66
2023/08/21 01:36:16;;;;;;;15.18;7.60;;;;;;;;;;5016539;28;20037;-66
2023/08/21 01:38:43;;;;;;;14.57;8.25;;;;;;;;;;5047562;28;20088;-66
2023/08/21 01:41:08;;;;;;;18.70;8.07;;;;;;;;;;5016831;28;20516;-66
2023/08/21 01:43:33;;;;;;;16.55;8.43;;;;;;;;;;5018553;28;20045;-67
2023/08/21 01:45:59;;;;;;;18.38;7.88;;;;;;;;;;5015901;28;20037;-67
2023/08/21 01:48:24;;;;;;;20.77;9.00;;;;;;;;;;5013970;28;20238;-67
2023/08/21 01:50:50;;;;;;;17.60;8.43;;;;;;;;;;5016949;28;21013;-67
2023/08/21 01:53:15;;;;;;;17.83;8.27;;;;;;;;;;5026729;28;20111;-67
2023/08/21 01:55:40;;;;;;;20.88;8.23;;;;;;;;;;5022287;28;20560;-65
2023/08/21 01:58:06;;;;;;;21.92;7.43;;;;;;;;;;5019865;28;20041;-67
2023/08/21 02:00:31;;;;;;;15.32;7.07;;;;;;;;;;5051256;28;20029;-67
2023/08/21 02:02:56;;;;;;;16.67;7.13;;;;;;;;;;5050851;28;20107;-67
2023/08/21 02:05:22;;;;;;;18.33;9.02;;;;;;;;;;5021220;28;20484;-66
2023/08/21 02:07:50;;;;;;;15.75;8.52;;;;;;;;;;5021011;28;20100;-65
2023/08/21 02:10:15;;;;;;;17.35;8.48;;;;;;;;;;5020194;28;20039;-65
2023/08/21 02:12:41;;;;;;;16.38;8.73;;;;;;;;;;5020993;28;20486;-65
2023/08/21 02:15:06;;;;;;;20.27;9.13;;;;;;;;;;5023755;28;20562;-65
2023/08/21 02:17:32;;;;;;;18.75;9.75;;;;;;;;;;5023960;28;20037;-67
2023/08/21 02:19:57;;;;;;;18.35;9.20;;;;;;;;;;5025805;28;20064;-65
2023/08/21 02:22:25;;;;;;;18.45;8.60;;;;;;;;;;5020193;28;20046;-67
2023/08/21 02:24:50;;;;;;;18.48;7.57;;;;;;;;;;5021393;28;20044;-65
2023/08/21 02:27:15;;;;;;;19.90;7.82;;;;;;;;;;5020059;28;20033;-65
2023/08/21 02:29:40;;;;;;;17.25;7.78;;;;;;;;;;5026216;28;20044;-65
2023/08/21 02:32:06;;;;;;;14.65;7.43;;;;;;;;;;5021249;28;21745;-65
2023/08/21 02:34:31;;;;;;;15.93;8.50;;;;;;;;;;5021100;28;20022;-65
2023/08/21 02:36:56;;;;;;;19.13;7.35;;;;;;;;;;5017972;28;20979;-65
2023/08/21 02:39:22;;;;;;;17.33;7.18;;;;;;;;;;5020668;28;20144;-66
2023/08/21 02:41:47;;;;;;;18.25;7.65;;;;;;;;;;5020991;28;20036;-66
2023/08/21 02:44:12;;;;;;;15.88;6.75;;;;;;;;;;5020585;28;20052;-66
2023/08/21 02:46:37;;;;;;;17.23;6.43;;;;;;;;;;5020807;28;20033;-66
2023/08/21 02:49:03;;;;;;;18.85;6.70;;;;;;;;;;5018000;28;20033;-66
2023/08/21 02:51:30;;;;;;;19.33;6.80;;;;;;;;;;5021828;28;20099;-66
2023/08/21 02:53:56;;;;;;;15.73;6.00;;;;;;;;;;5019304;28;20497;-65
2023/08/21 02:56:21;;;;;;;15.90;6.80;;;;;;;;;;5018439;28;20035;-65
2023/08/21 02:58:46;;;;;;;14.77;6.10;;;;;;;;;;5048319;28;20133;-66
2023/08/21 03:01:11;;;;;;;21.45;6.72;;;;;;;;;;5020168;28;20506;-66
2023/08/21 03:03:37;;;;;;;17.85;6.72;;;;;;;;;;5003779;28;20049;-66
2023/08/21 03:06:02;;;;;;;20.50;6.75;;;;;;;;;;5019790;28;20037;-66
2023/08/21 03:08:27;;;;;;;20.73;7.55;;;;;;;;;;5046737;28;20029;-66
2023/08/21 03:10:53;;;;;;;20.27;8.05;;;;;;;;;;5052069;28;20040;-65
2023/08/21 03:13:18;;;;;;;21.88;7.85;;;;;;;;;;5017657;28;20029;-66
2023/08/21 03:15:43;;;;;;;18.77;7.43;;;;;;;;;;5010047;28;20032;-66
2023/08/21 03:18:09;;;;;;;18.45;8.85;;;;;;;;;;5015803;28;20045;-66
2023/08/21 03:20:34;;;;;;;21.13;8.45;;;;;;;;;;5018317;28;20033;-66
2023/08/21 03:23:02;;;;;;;19.17;8.75;;;;;;;;;;5017965;28;20053;-66
2023/08/21 03:25:27;;;;;;;17.58;9.00;;;;;;;;;;5017587;28;20106;-66
2023/08/21 03:27:52;;;;;;;16.27;8.40;;;;;;;;;;5037889;28;20033;-66
2023/08/21 03:30:18;;;;;;;19.65;8.65;;;;;;;;;;5020128;28;20033;-65
2023/08/21 03:32:43;;;;;;;17.80;7.60;;;;;;;;;;5006498;28;20041;-66
2023/08/21 03:35:09;;;;;;;23.13;8.32;;;;;;;;;;5023682;28;20037;-65
2023/08/21 03:37:35;;;;;;;15.32;7.32;;;;;;;;;;5016953;28;20146;-66
2023/08/21 03:40:02;;;;;;;17.40;7.85;;;;;;;;;;5017039;28;22307;-65
2023/08/21 03:42:27;;;;;;;17.75;7.78;;;;;;;;;;5019066;28;20033;-66
2023/08/21 03:44:57;;;;;;;13.27;6.25;;;;;;;;;;5019375;28;20037;-66
2023/08/21 03:47:23;;;;;;;17.08;8.25;;;;;;;;;;5016677;28;22314;-66
2023/08/21 03:49:48;;;;;;;15.20;7.72;;;;;;;;;;5017573;28;20060;-66
2023/08/21 03:52:13;;;;;;;17.77;7.72;;;;;;;;;;5021813;28;20029;-65
2023/08/21 03:54:39;;;;;;;16.75;8.15;;;;;;;;;;5018872;28;20041;-66
2023/08/21 03:57:04;;;;;;;16.85;8.43;;;;;;;;;;5016874;28;20063;-66
2023/08/21 03:59:30;;;;;;;22.15;9.82;;;;;;;;;;5018434;28;20042;-66
2023/08/21 04:01:55;;;;;;;16.67;8.70;;;;;;;;;;5017189;28;20136;-66
2023/08/21 04:04:20;;;;;;;20.48;9.23;;;;;;;;;;5017493;27;20049;-66
2023/08/21 04:06:46;;;;;;;18.65;9.27;;;;;;;;;;5020228;28;20051;-66
2023/08/21 04:09:11;;;;;;;21.30;9.48;;;;;;;;;;5018146;28;20034;-66
2023/08/21 04:11:37;;;;;;;19.88;10.25;;;;;;;;;;5051581;28;20120;-66
2023/08/21 04:14:03;;;;;;;20.13;10.50;;;;;;;;;;5023115;28;20894;-66
2023/08/21 04:16:28;;;;;;;19.17;10.95;;;;;;;;;;5016759;28;20033;-66
2023/08/21 04:18:54;;;;;;;17.27;8.88;;;;;;;;;;5016864;28;20253;-66
2023/08/21 04:21:19;;;;;;;16.33;7.45;;;;;;;;;;5018833;28;20060;-65
2023/08/21 04:23:47;;;;;;;15.13;7.60;;;;;;;;;;5023758;28;20048;-65
2023/08/21 04:26:15;;;;;;;17.40;7.57;;;;;;;;;;5018922;28;20149;-66
2023/08/21 04:28:41;;;;;;;12.27;5.97;;;;;;;;;;5037758;28;20061;-66
2023/08/21 04:31:09;;;;;;;10.57;5.10;;;;;;;;;;5020957;28;20036;-66
2023/08/21 04:33:36;;;;;;;11.90;4.45;;;;;;;;;;5017799;28;20039;-66
2023/08/21 04:36:02;;;;;;;10.77;4.60;;;;;;;;;;5017471;28;20032;-66
2023/08/21 04:38:27;;;;;;;14.10;5.30;;;;;;;;;;5018603;28;20753;-66
2023/08/21 04:40:52;;;;;;;19.83;7.32;;;;;;;;;;5020354;28;20034;-66
2023/08/21 04:43:17;;;;;;;16.55;8.30;;;;;;;;;;5018558;28;20097;-66
2023/08/21 04:45:55;;;;;;;15.18;7.97;;;;;;;;;;5019635;28;20060;-66
2023/08/21 04:48:21;;;;;;;16.95;8.88;;;;;;;;;;5019401;28;20101;-66
2023/08/21 04:50:49;;;;;;;14.88;8.13;;;;;;;;;;5017251;28;20079;-66
2023/08/21 04:53:14;;;;;;;16.75;8.35;;;;;;;;;;5016350;28;21097;-66
2023/08/21 04:55:40;;;;;;;20.65;11.32;;;;;;;;;;5020278;28;20033;-66
2023/08/21 04:58:06;;;;;;;27.50;15.02;;;;;;;;;;5019479;28;20040;-66
2023/08/21 05:00:31;;;;;;;24.92;16.88;;;;;;;;;;5018146;28;22241;-66
2023/08/21 05:02:56;;;;;;;24.60;16.63;;;;;;;;;;5022537;28;20763;-67
2023/08/21 05:05:22;;;;;;;24.92;12.60;;;;;;;;;;5016861;28;20114;-69
2023/08/21 05:07:47;;;;;;;16.95;9.48;;;;;;;;;;5017979;28;20041;-69
2023/08/21 05:10:12;;;;;;;12.80;6.93;;;;;;;;;;5002997;28;20745;-67
2023/08/21 05:12:38;;;;;;;14.27;6.20;;;;;;;;;;5018831;28;20064;-68
2023/08/21 05:15:03;;;;;;;15.65;5.55;;;;;;;;;;5018267;28;20037;-67
2023/08/21 05:17:29;;;;;;;13.82;6.68;;;;;;;;;;5016502;28;20056;-66
2023/08/21 05:19:55;;;;;;;15.38;7.35;;;;;;;;;;5017627;28;20075;-66
2023/08/21 05:22:20;;;;;;;19.90;8.63;;;;;;;;;;5022007;28;20034;-66
2023/08/21 05:24:47;;;;;;;17.80;9.65;;;;;;;;;;5016458;28;20029;-66
2023/08/21 05:27:13;;;;;;;16.25;9.00;;;;;;;;;;5030421;28;20041;-66
2023/08/21 05:29:40;;;;;;;18.02;9.70;;;;;;;;;;5047534;28;20044;-66
2023/08/21 05:32:06;;;;;;;24.15;10.55;;;;;;;;;;5018063;28;20033;-66
2023/08/21 05:34:31;;;;;;;19.65;8.52;;;;;;;;;;5015550;28;20037;-66
2023/08/21 05:36:56;;;;;;;21.08;10.77;;;;;;;;;;5021337;28;20044;-66
2023/08/21 05:39:24;;;;;;;21.42;9.85;;;;;;;;;;5016463;28;20172;-66
2023/08/21 05:41:49;;;;;;;21.98;11.30;;;;;;;;;;5018853;28;20648;-66
2023/08/21 05:44:15;;;;;;;17.00;8.57;;;;;;;;;;5021417;28;20977;-66
2023/08/21 05:46:40;;;;;;;13.32;6.07;;;;;;;;;;5032401;28;20037;-66
2023/08/21 05:49:06;;;;;;;14.05;5.53;;;;;;;;;;5020317;28;20043;-66
2023/08/21 05:51:31;;;;;;;15.70;5.50;;;;;;;;;;5019527;28;20079;-66
2023/08/21 05:53:56;;;;;;;13.05;4.70;;;;;;;;;;5014263;28;20033;-67
2023/08/21 05:56:22;;;;;;;14.00;5.53;;;;;;;;;;5019191;28;20037;-68
2023/08/21 05:58:47;;;;;;;15.55;5.90;;;;;;;;;;5049316;28;20037;-66
2023/08/21 06:01:13;;;;;;;10.38;4.88;;;;;;;;;;5016967;28;20596;-68
2023/08/21 06:03:38;;;;;;;17.42;8.00;;;;;;;;;;5019923;28;20049;-68
2023/08/21 06:06:03;;;;;;;19.88;8.90;;;;;;;;;;5018473;28;20624;-68
2023/08/21 06:08:29;;;;;;;21.05;11.43;;;;;;;;;;5022115;28;20060;-68
2023/08/21 06:11:01;;;;;;;21.23;11.48;;;;;;;;;;5017153;28;20033;-68
2023/08/21 06:13:26;;;;;;;16.17;8.73;;;;;;;;;;5015772;28;20030;-68
2023/08/21 06:15:55;;;;;;;23.88;11.73;;;;;;;;;;5017291;28;20122;-68
2023/08/21 06:18:20;;;;;;;20.63;10.43;;;;;;;;;;5004595;28;20087;-68
2023/08/21 06:20:48;;;;;;;18.33;11.80;;;;;;;;;;5006150;28;20045;-68
2023/08/21 06:23:13;;;;;;;20.23;10.27;;;;;;;;;;5016745;28;20098;-68
2023/08/21 06:25:39;;;;;;;14.50;7.97;;;;;;;;;;5015772;28;20144;-68
2023/08/21 06:28:06;;;;;;;12.63;5.47;;;;;;;;;;5020927;28;20040;-69
2023/08/21 06:30:34;;;;;;;10.82;3.80;;;;;;;;;;5018401;28;20033;-66
2023/08/21 06:32:59;;;;;;;12.48;3.10;;;;;;;;;;5019547;28;20037;-69
2023/08/21 06:35:27;;;;;;;9.30;3.17;;;;;;;;;;5012559;28;20528;-68
2023/08/21 06:37:54;;;;;;;10.40;3.53;;;;;;;;;;5016482;28;20144;-69
2023/08/21 06:40:19;;;;;;;10.52;2.95;;;;;;;;;;5018289;28;20040;-68
2023/08/21 06:42:45;;;;;;;9.88;3.63;;;;;;;;;;5019444;28;22408;-68
2023/08/21 06:45:10;;;;;;;10.02;2.95;;;;;;;;;;5019675;28;20091;-66
2023/08/21 06:47:39;;;;;;;9.43;2.80;;;;;;;;;;5050399;28;20431;-67
2023/08/21 06:50:05;;;;;;;7.80;2.45;;;;;;;;;;5018026;28;20389;-67
2023/08/21 06:52:30;;;;;;;8.18;2.30;;;;;;;;;;5018312;28;20044;-67
2023/08/21 06:54:56;;;;;;;11.07;2.40;;;;;;;;;;5021178;28;20033;-66
2023/08/21 06:57:22;;;;;;;7.00;1.80;;;;;;;;;;5021922;28;20465;-67
2023/08/21 06:59:47;;;;;;;8.02;2.10;;;;;;;;;;5050468;28;20036;-66
2023/08/21 07:02:12;;;;;;;10.10;2.22;;;;;;;;;;5015491;28;20057;-67
2023/08/21 07:04:40;;;;;;;8.85;2.13;;;;;;;;;;5004901;28;20251;-67
2023/08/21 07:07:07;;;;;;;8.23;2.38;;;;;;;;;;5017031;28;20045;-67
2023/08/21 07:09:33;;;;;;;10.05;2.20;;;;;;;;;;5017531;28;20037;-65
2023/08/21 07:11:58;;;;;;;9.38;2.35;;;;;;;;;;5017106;28;20047;-64
2023/08/21 07:14:24;;;;;;;8.77;2.00;;;;;;;;;;5003896;28;20385;-65
2023/08/21 07:16:49;;;;;;;10.63;2.08;;;;;;;;;;5015814;28;20036;-65
2023/08/21 07:19:14;;;;;;;8.18;1.95;;;;;;;;;;5017822;28;20040;-65
2023/08/21 07:21:40;;;;;;;7.30;1.70;;;;;;;;;;5015472;28;20710;-66
2023/08/21 07:24:05;;;;;;;8.77;1.90;;;;;;;;;;5021042;28;20666;-66
2023/08/21 07:26:31;;;;;;;10.98;2.15;;;;;;;;;;5013297;28;20129;-66
2023/08/21 07:28:56;;;;;;;9.80;1.85;;;;;;;;;;5014167;28;20095;-66
2023/08/21 07:31:26;;;;;;;8.95;1.90;;;;;;;;;;5017288;28;20041;-65
2023/08/21 07:33:54;;;;;;;9.13;2.22;;;;;;;;;;5012700;28;20098;-65
2023/08/21 07:36:19;;;;;;;6.55;2.20;;;;;;;;;;5005697;28;22000;-65
2023/08/21 07:38:45;;;;;;;8.02;1.88;;;;;;;;;;5017339;28;20052;-65
2023/08/21 07:41:11;;;;;;;9.77;2.03;;;;;;;;;;5017417;28;20040;-64
2023/08/21 07:43:37;;;;;;;7.32;1.95;;;;;;;;;;5014216;28;20055;-67
2023/08/21 07:46:05;;;;;;;7.95;1.90;;;;;;;;;;5015559;28;20036;-65
2023/08/21 07:48:30;;;;;;;10.88;2.25;;;;;;;;;;5011542;28;20055;-66
2023/08/21 07:50:56;;;;;;;8.52;2.00;;;;;;;;;;5014245;28;20482;-63
2023/08/21 07:53:24;;;;;;;8.73;1.95;;;;;;;;;;5016168;28;20069;-63
2023/08/21 07:55:49;;;;;;;9.45;1.95;;;;;;;;;;5018543;28;20071;-66
2023/08/21 07:58:17;;;;;;;8.15;1.80;;;;;;;;;;5046794;28;20033;-65
2023/08/21 08:00:43;;;;;;;10.18;2.00;;;;;;;;;;5017141;28;20049;-67
2023/08/21 08:03:09;;;;;;;8.20;2.03;;;;;;;;;;5014037;28;20230;-66
2023/08/21 08:05:34;;;;;;;7.32;2.10;;;;;;;;;;5013967;28;20092;-64
2023/08/21 08:07:59;;;;;;;9.05;2.50;;;;;;;;;;5012523;28;20413;-64
2023/08/21 08:10:24;;;;;;;6.80;1.88;;;;;;;;;;5045732;28;20785;-64
2023/08/21 08:12:50;;;;;;;7.05;1.88;;;;;;;;;;5018402;28;20123;-66
2023/08/21 08:15:18;;;;;;;8.43;2.13;;;;;;;;;;5017746;28;21307;-64
2023/08/21 08:17:45;;;;;;;6.38;1.80;;;;;;;;;;5017638;28;20086;-65
2023/08/21 08:20:11;;;;;;;8.60;2.15;;;;;;;;;;5003876;28;20106;-65
2023/08/21 08:22:36;;;;;;;9.38;2.10;;;;;;;;;;5016265;28;20235;-65
2023/08/21 08:25:02;;;;;;;32.95;4.85;;;;;;;;;;5017020;28;20615;-67
2023/08/21 08:27:27;;;;;;;5.63;1.60;;;;;;;;;;5015926;28;20060;-66
2023/08/21 08:29:52;;;;;;;10.15;1.77;;;;;;;;;;5047549;28;20147;-66
2023/08/21 08:32:18;;;;;;;8.65;1.80;;;;;;;;;;5017370;28;20064;-66
2023/08/21 08:34:46;;;;;;;15.90;2.45;;;;;;;;;;5018079;28;20052;-65
2023/08/21 08:37:16;;;;;;;9.60;1.85;;;;;;;;;;5020478;28;20041;-65
2023/08/21 08:39:42;;;;;;;6.43;1.80;;;;;;;;;;5016282;28;20052;-63
2023/08/21 08:42:07;;;;;;;8.07;1.80;;;;;;;;;;5015114;28;20040;-65
2023/08/21 08:44:34;;;;;;;8.48;1.92;;;;;;;;;;5013865;28;20243;-65
2023/08/21 08:47:00;;;;;;;7.88;1.80;;;;;;;;;;5013205;28;20048;-66
2023/08/21 08:49:26;;;;;;;9.32;2.03;;;;;;;;;;5016183;28;20048;-65
2023/08/21 08:51:53;;;;;;;9.50;1.95;;;;;;;;;;5014309;28;20033;-67
2023/08/21 08:54:19;;;;;;;9.38;1.92;;;;;;;;;;5018531;28;20044;-67
2023/08/21 08:56:44;;;;;;;8.35;2.10;;;;;;;;;;5004712;28;20173;-67
2023/08/21 08:59:10;;;;;;;9.95;1.90;;;;;;;;;;4994712;28;20034;-66
2023/08/21 09:01:37;;;;;;;8.40;2.13;;;;;;;;;;5002002;28;20102;-64
2023/08/21 09:04:03;;;;;;;9.32;2.00;;;;;;;;;;4994828;28;20036;-63
2023/08/21 09:06:28;;;;;;;8.32;1.80;;;;;;;;;;4991633;28;20103;-65
2023/08/21 09:08:54;;;;;;;8.07;2.05;;;;;;;;;;4996528;28;20037;-65
2023/08/21 09:11:20;;;;;;;9.05;2.13;;;;;;;;;;4996408;28;20685;-64
2023/08/21 09:13:48;;;;;;;11.02;2.05;;;;;;;;;;4998462;28;20115;-64
2023/08/21 09:16:14;;;;;;;5.80;1.60;;;;;;;;;;4999066;28;20132;-65
2023/08/21 09:18:46;;;;;;;7.53;1.65;;;;;;;;;;5001417;28;20712;-65
2023/08/21 09:21:20;;;;;;;8.90;2.13;;;;;;;;;;4998419;28;20099;-64
2023/08/21 09:23:48;;;;;;;7.88;1.52;;;;;;;;;;4983435;28;20046;-64
2023/08/21 09:26:23;;;;;;;5.35;1.67;;;;;;;;;;4993252;28;20134;-65
2023/08/21 09:28:49;;;;;;;7.97;1.80;;;;;;;;;;4996715;28;20038;-65
2023/08/21 09:31:14;;;;;;;6.50;1.63;;;;;;;;;;4989772;28;20037;-64
2023/08/21 09:33:40;;;;;;;8.30;1.80;;;;;;;;;;4981130;28;20040;-65
2023/08/21 09:36:05;;;;;;;7.28;1.63;;;;;;;;;;4995221;28;20042;-61
2023/08/21 09:38:33;;;;;;;6.35;1.65;;;;;;;;;;4993283;28;20660;-65
2023/08/21 09:40:58;;;;;;;9.00;2.00;;;;;;;;;;4996000;28;20037;-66
2023/08/21 09:43:24;;;;;;;7.18;1.88;;;;;;;;;;4996192;28;20053;-65
2023/08/21 09:45:54;;;;;;;6.55;1.58;;;;;;;;;;5000751;28;20148;-66
2023/08/21 09:48:21;;;;;;;5.25;1.48;;;;;;;;;;4997966;28;20117;-64
2023/08/21 09:50:46;;;;;;;7.03;1.42;;;;;;;;;;4997761;28;20091;-67
2023/08/21 09:53:12;;;;;;;8.65;1.60;;;;;;;;;;4998849;28;20037;-67
2023/08/21 09:55:40;;;;;;;7.88;1.70;;;;;;;;;;4996988;28;20043;-66
2023/08/21 09:58:06;;;;;;;4.05;1.60;;;;;;;;;;4998243;28;20399;-68
2023/08/21 10:00:33;;;;;;;5.32;1.58;;;;;;;;;;5028257;28;20038;-65
2023/08/21 10:03:03;;;;;;;5.68;1.50;;;;;;;;;;5016105;28;20079;-64
2023/08/21 10:05:31;;;;;;;5.60;1.58;;;;;;;;;;5014844;28;21026;-63
2023/08/21 10:07:58;;;;;;;6.22;1.50;;;;;;;;;;5017973;28;20037;-67
2023/08/21 10:10:24;;;;;;;7.20;1.50;;;;;;;;;;5045723;28;20036;-66
2023/08/21 10:12:49;;;;;;;7.28;1.50;;;;;;;;;;5014810;28;20034;-64
2023/08/21 10:15:15;;;;;;;8.38;1.65;;;;;;;;;;5050339;28;20037;-67
2023/08/21 10:17:41;;;;;;;5.95;1.60;;;;;;;;;;5019565;28;20029;-65
2023/08/21 10:20:07;;;;;;;7.22;1.98;;;;;;;;;;5021124;28;20666;-67
2023/08/21 10:22:48;;;;;;;7.95;1.65;;;;;;;;;;5005899;28;20464;-66
2023/08/21 10:25:14;;;;;;;4.28;1.50;;;;;;;;;;5019405;28;20033;-66
2023/08/21 10:27:40;;;;;;;6.72;1.50;;;;;;;;;;5013255;28;20766;-65
2023/08/21 10:30:19;;;;;;;5.55;1.52;;;;;;;;;;5052746;28;20033;-65
2023/08/21 10:32:48;;;;;;;7.38;1.77;;;;;;;;;;5019204;28;20025;-66
2023/08/21 10:35:17;;;;;;;4.78;1.80;;;;;;;;;;5020892;28;20033;-65
2023/08/21 10:38:01;;;;;;;7.47;2.00;;;;;;;;;;5018705;28;20626;-66
2023/08/21 10:40:28;;;;;;;6.38;1.90;;;;;;;;;;5017622;28;20056;-63
2023/08/21 10:42:54;;;;;;;7.25;1.80;;;;;;;;;;5020518;28;21449;-64
2023/08/21 10:45:19;;;;;;;4.97;1.60;;;;;;;;;;5018733;28;20025;-64
2023/08/21 10:47:46;;;;;;;6.68;1.60;;;;;;;;;;5048843;28;20025;-65
2023/08/21 10:50:12;;;;;;;6.18;1.80;;;;;;;;;;5018133;27;20143;-65
2023/08/21 10:52:44;;;;;;;8.02;1.75;;;;;;;;;;5006594;28;20033;-65
2023/08/21 10:55:10;;;;;;;6.70;1.55;;;;;;;;;;5017093;28;20029;-66
2023/08/21 10:57:41;;;;;;;6.63;1.80;;;;;;;;;;5050929;28;20125;-69
2023/08/21 11:00:09;;;;;;;7.18;2.08;;;;;;;;;;5017951;28;20025;-71
2023/08/21 11:02:35;;;;;;;7.05;1.80;;;;;;;;;;5019315;28;20036;-70
2023/08/21 11:05:03;;;;;;;5.90;1.90;;;;;;;;;;5019045;28;20139;-70
2023/08/21 11:07:29;;;;;;;7.18;1.80;;;;;;;;;;5049293;28;20029;-69
2023/08/21 11:09:57;;;;;;;6.93;2.00;;;;;;;;;;5048325;28;20041;-71
2023/08/21 11:12:24;;;;;;;8.18;2.10;;;;;;;;;;5018992;28;20108;-68
2023/08/21 11:14:50;;;;;;;7.25;1.83;;;;;;;;;;5019320;28;20044;-70
2023/08/21 11:17:17;;;;;;;9.05;1.80;;;;;;;;;;5015234;28;20136;-72
2023/08/21 11:19:42;;;;;;;7.55;2.20;;;;;;;;;;5015092;28;20670;-71
2023/08/21 11:22:08;;;;;;;7.78;1.75;;;;;;;;;;5018102;28;20044;-71
2023/08/21 11:24:40;;;;;;;8.23;1.80;;;;;;;;;;5015077;28;20352;-70
2023/08/21 11:27:05;;;;;;;8.00;1.98;;;;;;;;;;5016811;28;20086;-71
2023/08/21 11:29:41;;;;;;;8.30;1.90;;;;;;;;;;5023539;28;20032;-72
2023/08/21 11:32:09;;;;;;;4.90;1.88;;;;;;;;;;5015935;28;20037;-68
2023/08/21 11:34:37;;;;;;;5.57;1.83;;;;;;;;;;5013303;28;22309;-70
2023/08/21 11:37:04;;;;;;;7.57;2.10;;;;;;;;;;5017415;28;22355;-70
2023/08/21 11:39:38;;;;;;;7.43;1.88;;;;;;;;;;5017444;28;20156;-70
2023/08/21 11:42:08;;;;;;;4.60;1.67;;;;;;;;;;5017552;28;20072;-72
2023/08/21 11:44:39;;;;;;;6.82;1.63;;;;;;;;;;5033847;28;20048;-68
2023/08/21 11:47:04;;;;;;;5.57;1.90;;;;;;;;;;5019532;28;20782;-71
2023/08/21 11:49:32;;;;;;;8.23;1.73;;;;;;;;;;5019901;28;20067;-72
2023/08/21 11:51:57;;;;;;;5.50;1.90;;;;;;;;;;5050542;28;20044;-70
2023/08/21 11:54:25;;;;;;;6.05;1.70;;;;;;;;;;5019399;28;20056;-71
2023/08/21 11:56:50;;;;;;;6.78;1.83;;;;;;;;;;5020046;28;20888;-68
2023/08/21 11:59:22;;;;;;;6.53;1.80;;;;;;;;;;5022032;28;20036;-71
2023/08/21 12:01:49;;;;;;;6.63;1.90;;;;;;;;;;5018986;28;20074;-70
2023/08/21 12:04:18;;;;;;;5.60;1.58;;;;;;;;;;5018659;28;20481;-69
2023/08/21 12:06:48;;;;;;;4.85;1.73;;;;;;;;;;5018474;28;20144;-71
2023/08/21 12:09:13;;;;;;;5.80;1.80;;;;;;;;;;4998479;28;20068;-71
2023/08/21 12:11:39;;;;;;;7.65;1.77;;;;;;;;;;4999125;28;20030;-71
2023/08/21 12:14:05;;;;;;;7.10;2.13;;;;;;;;;;5001293;28;20614;-71
2023/08/21 12:16:30;;;;;;;7.03;2.17;;;;;;;;;;4997617;28;20041;-72
2023/08/21 12:18:57;;;;;;;4.28;1.70;;;;;;;;;;4997596;28;20554;-69
2023/08/21 12:21:23;;;;;;;8.63;1.80;;;;;;;;;;4999670;28;20525;-72
2023/08/21 12:23:50;;;;;;;7.00;1.70;;;;;;;;;;4999388;28;20049;-70
2023/08/21 12:26:22;;;;;;;7.18;2.08;;;;;;;;;;5004356;28;22616;-71
2023/08/21 12:28:48;;;;;;;6.35;1.70;;;;;;;;;;4997574;28;20394;-73
2023/08/21 12:31:16;;;;;;;5.50;1.80;;;;;;;;;;5030595;28;20029;-71
2023/08/21 12:33:41;;;;;;;6.63;1.92;;;;;;;;;;5001119;28;20033;-71
2023/08/21 12:36:08;;;;;;;6.60;1.60;;;;;;;;;;4999781;28;20049;-72
2023/08/21 12:38:36;;;;;;;5.65;1.80;;;;;;;;;;4998989;28;20050;-71
2023/08/21 12:41:02;;;;;;;5.13;1.60;;;;;;;;;;4999273;28;20038;-72
2023/08/21 12:43:27;;;;;;;7.32;2.03;;;;;;;;;;4997711;28;20041;-72
2023/08/21 12:45:52;;;;;;;4.95;1.85;;;;;;;;;;4996476;28;20520;-70
2023/08/21 12:48:18;;;;;;;6.28;2.10;;;;;;;;;;4996975;28;20059;-69
2023/08/21 12:50:43;;;;;;;6.95;2.10;;;;;;;;;;4999633;28;20048;-72
2023/08/21 12:53:08;;;;;;;5.43;1.70;;;;;;;;;;4996010;28;20117;-70
2023/08/21 12:55:36;;;;;;;4.45;1.88;;;;;;;;;;4998214;28;20030;-72
2023/08/21 12:58:01;;;;;;;5.22;1.77;;;;;;;;;;5019423;28;20051;-71
2023/08/21 13:00:29;;;;;;;7.90;2.10;;;;;;;;;;5014648;28;20133;-70
2023/08/21 13:02:54;;;;;;;4.97;1.83;;;;;;;;;;5012468;28;20034;-69
2023/08/21 13:05:19;;;;;;;5.68;1.80;;;;;;;;;;5012527;28;20049;-67
2023/08/21 13:07:45;;;;;;;6.50;1.75;;;;;;;;;;5017875;28;20036;-69
2023/08/21 13:10:10;;;;;;;7.30;1.90;;;;;;;;;;5019574;28;20037;-71
2023/08/21 13:12:35;;;;;;;5.80;2.25;;;;;;;;;;5012762;28;20033;-71
2023/08/21 13:15:04;;;;;;;7.53;2.10;;;;;;;;;;5014966;28;21116;-71
2023/08/21 13:17:29;;;;;;;9.38;2.17;;;;;;;;;;5012947;28;20033;-72
2023/08/21 13:19:54;;;;;;;5.30;2.38;;;;;;;;;;5045438;28;20029;-73
2023/08/21 13:22:22;;;;;;;6.25;1.80;;;;;;;;;;5018131;28;20501;-71
2023/08/21 13:24:47;;;;;;;7.65;2.50;;;;;;;;;;5013485;28;20045;-70
2023/08/21 13:27:12;;;;;;;6.90;2.35;;;;;;;;;;5012087;28;20033;-72
2023/08/21 13:29:39;;;;;;;8.02;2.35;;;;;;;;;;5013735;28;20029;-71
2023/08/21 13:32:05;;;;;;;8.73;2.03;;;;;;;;;;5014010;28;20553;-70
2023/08/21 13:34:30;;;;;;;6.78;2.20;;;;;;;;;;5015571;28;20095;-72
2023/08/21 13:36:55;;;;;;;6.75;1.77;;;;;;;;;;5020500;28;20060;-74
2023/08/21 13:39:22;;;;;;;6.25;1.90;;;;;;;;;;5021707;28;20150;-73
2023/08/21 13:41:48;;;;;;;6.28;2.40;;;;;;;;;;5015060;28;20029;-74
2023/08/21 13:44:16;;;;;;;4.90;2.00;;;;;;;;;;5015609;28;20187;-74
2023/08/21 13:46:42;;;;;;;5.47;1.80;;;;;;;;;;5013550;28;20049;-74
2023/08/21 13:49:07;;;;;;;7.60;2.25;;;;;;;;;;5014625;28;20040;-74
2023/08/21 13:51:33;;;;;;;7.97;2.25;;;;;;;;;;5016078;28;20540;-74
2023/08/21 13:54:00;;;;;;;4.70;1.63;;;;;;;;;;5020061;28;21071;-74
2023/08/21 13:56:26;;;;;;;6.75;1.90;;;;;;;;;;5015641;28;20040;-75
2023/08/21 13:58:51;;;;;;;5.53;1.67;;;;;;;;;;5018332;28;20048;-72
2023/08/21 14:01:16;;;;;;;6.57;1.70;;;;;;;;;;5012784;28;20397;-72
2023/08/21 14:03:42;;;;;;;6.03;1.67;;;;;;;;;;5013042;28;20164;-74
2023/08/21 14:06:11;;;;;;;4.43;1.40;;;;;;;;;;5044874;28;20041;-74
2023/08/21 14:08:36;;;;;;;5.32;1.75;;;;;;;;;;5015558;28;20223;-73
2023/08/21 14:11:01;;;;;;;6.25;1.80;;;;;;;;;;5013057;28;20730;-74
2023/08/21 14:13:27;;;;;;;4.50;1.80;;;;;;;;;;5017035;28;20025;-74
2023/08/21 14:15:53;;;;;;;5.57;1.90;;;;;;;;;;5012691;28;20044;-74
2023/08/21 14:18:20;;;;;;;4.70;1.88;;;;;;;;;;5014193;28;20285;-72
2023/08/21 14:20:46;;;;;;;6.57;1.90;;;;;;;;;;5016462;28;20281;-73
2023/08/21 14:23:11;;;;;;;4.50;1.90;;;;;;;;;;5015423;28;20044;-71
2023/08/21 14:25:37;;;;;;;5.47;1.90;;;;;;;;;;5014674;28;20820;-73
2023/08/21 14:28:02;;;;;;;8.00;1.85;;;;;;;;;;5017074;28;20065;-73
2023/08/21 14:30:28;;;;;;;6.50;1.67;;;;;;;;;;5015458;28;20064;-73